sensor_id;sensor_type;location;lat;lon;timestamp;temperature;humidity
58638;DHT22;54976;51.510;7.522;2023-05-27T00:00:54;10.20;94.90
58638;DHT22;54976;51.510;7.522;2023-05-27T00:03:55;10.20;95.10
58638;DHT22;54976;51.510;7.522;2023-05-27T00:06:56;10.10;95.30
58638;DHT22;54976;51.510;7.522;2023-05-27T00:09:57;10.10;95.30
58638;DHT22;54976;51.510;7.522;2023-05-27T00:12:57;10.10;95.30
58638;DHT22;54976;51.510;7.522;2023-05-27T00:15:58;10.00;95.20
58638;DHT22;54976;51.510;7.522;2023-05-27T00:18:58;10.00;95.70
58638;DHT22;54976;51.510;7.522;2023-05-27T00:21:59;9.90;96.40
58638;DHT22;54976;51.510;7.522;2023-05-27T00:25:00;9.90;96.50
58638;DHT22;54976;51.510;7.522;2023-05-27T00:28:01;9.90;96.60
58638;DHT22;54976;51.510;7.522;2023-05-27T00:31:01;9.80;96.60
58638;DHT22;54976;51.510;7.522;2023-05-27T00:34:02;9.80;97.10
58638;DHT22;54976;51.510;7.522;2023-05-27T00:37:04;9.80;97.00
58638;DHT22;54976;51.510;7.522;2023-05-27T00:40:08;9.80;97.30
58638;DHT22;54976;51.510;7.522;2023-05-27T00:43:10;9.70;97.60
58638;DHT22;54976;51.510;7.522;2023-05-27T00:46:10;9.70;97.50
58638;DHT22;54976;51.510;7.522;2023-05-27T00:49:12;9.60;97.50
58638;DHT22;54976;51.510;7.522;2023-05-27T00:52:13;9.60;97.80
58638;DHT22;54976;51.510;7.522;2023-05-27T00:55:13;9.50;97.60
58638;DHT22;54976;51.510;7.522;2023-05-27T00:58:14;9.50;97.90
58638;DHT22;54976;51.510;7.522;2023-05-27T01:01:15;9.40;98.40
58638;DHT22;54976;51.510;7.522;2023-05-27T01:04:16;9.40;98.40
58638;DHT22;54976;51.510;7.522;2023-05-27T01:10:52;9.30;98.70
58638;DHT22;54976;51.510;7.522;2023-05-27T01:13:58;9.30;99.00
58638;DHT22;54976;51.510;7.522;2023-05-27T01:17:01;9.20;99.00
58638;DHT22;54976;51.510;7.522;2023-05-27T01:20:04;9.20;99.30
58638;DHT22;54976;51.510;7.522;2023-05-27T01:23:07;9.20;99.40
58638;DHT22;54976;51.510;7.522;2023-05-27T01:26:07;9.10;99.10
58638;DHT22;54976;51.510;7.522;2023-05-27T01:29:08;9.10;99.10
58638;DHT22;54976;51.510;7.522;2023-05-27T01:35:45;9.10;99.70
58638;DHT22;54976;51.510;7.522;2023-05-27T01:38:47;9.00;99.60
58638;DHT22;54976;51.510;7.522;2023-05-27T01:41:50;9.00;99.80
58638;DHT22;54976;51.510;7.522;2023-05-27T01:44:52;8.90;99.90
58638;DHT22;54976;51.510;7.522;2023-05-27T01:47:54;8.90;99.80
58638;DHT22;54976;51.510;7.522;2023-05-27T01:50:54;8.80;99.90
58638;DHT22;54976;51.510;7.522;2023-05-27T01:53:55;8.80;99.90
58638;DHT22;54976;51.510;7.522;2023-05-27T01:56:55;8.80;99.90
58638;DHT22;54976;51.510;7.522;2023-05-27T01:59:56;8.80;99.90
58638;DHT22;54976;51.510;7.522;2023-05-27T02:02:57;8.70;99.90
58638;DHT22;54976;51.510;7.522;2023-05-27T02:05:58;8.70;99.90
58638;DHT22;54976;51.510;7.522;2023-05-27T02:08:58;8.70;99.90
58638;DHT22;54976;51.510;7.522;2023-05-27T02:11:59;8.70;99.90
58638;DHT22;54976;51.510;7.522;2023-05-27T02:14:59;8.60;99.90
58638;DHT22;54976;51.510;7.522;2023-05-27T02:18:00;8.70;99.90
58638;DHT22;54976;51.510;7.522;2023-05-27T02:21:01;8.60;99.90
58638;DHT22;54976;51.510;7.522;2023-05-27T02:24:06;8.60;99.90
58638;DHT22;54976;51.510;7.522;2023-05-27T02:27:07;8.60;99.90
58638;DHT22;54976;51.510;7.522;2023-05-27T02:30:08;8.50;99.90
58638;DHT22;54976;51.510;7.522;2023-05-27T02:33:08;8.50;99.90
58638;DHT22;54976;51.510;7.522;2023-05-27T02:36:09;8.50;99.90
58638;DHT22;54976;51.510;7.522;2023-05-27T02:39:10;8.50;99.90
58638;DHT22;54976;51.510;7.522;2023-05-27T02:42:11;8.40;99.90
58638;DHT22;54976;51.510;7.522;2023-05-27T02:45:11;8.40;99.90
58638;DHT22;54976;51.510;7.522;2023-05-27T02:48:12;8.30;99.90
58638;DHT22;54976;51.510;7.522;2023-05-27T02:51:13;8.40;99.90
58638;DHT22;54976;51.510;7.522;2023-05-27T02:54:14;8.30;99.90
58638;DHT22;54976;51.510;7.522;2023-05-27T02:57:15;8.30;99.90
58638;DHT22;54976;51.510;7.522;2023-05-27T03:00:15;8.30;99.90
58638;DHT22;54976;51.510;7.522;2023-05-27T03:03:17;8.30;99.90
58638;DHT22;54976;51.510;7.522;2023-05-27T03:06:18;8.30;99.90
58638;DHT22;54976;51.510;7.522;2023-05-27T03:09:18;8.20;99.90
58638;DHT22;54976;51.510;7.522;2023-05-27T03:12:19;8.20;99.90
58638;DHT22;54976;51.510;7.522;2023-05-27T03:15:19;8.20;99.90
58638;DHT22;54976;51.510;7.522;2023-05-27T03:18:22;8.20;99.90
58638;DHT22;54976;51.510;7.522;2023-05-27T03:21:22;8.20;99.90
58638;DHT22;54976;51.510;7.522;2023-05-27T03:24:23;8.20;99.90
58638;DHT22;54976;51.510;7.522;2023-05-27T03:27:23;8.20;99.90
58638;DHT22;54976;51.510;7.522;2023-05-27T03:30:24;8.20;99.90
58638;DHT22;54976;51.510;7.522;2023-05-27T03:33:24;8.30;99.90
58638;DHT22;54976;51.510;7.522;2023-05-27T03:36:25;8.10;99.90
58638;DHT22;54976;51.510;7.522;2023-05-27T03:39:26;8.10;99.90
58638;DHT22;54976;51.510;7.522;2023-05-27T03:42:27;8.10;99.90
58638;DHT22;54976;51.510;7.522;2023-05-27T03:45:28;8.10;99.90
58638;DHT22;54976;51.510;7.522;2023-05-27T03:48:28;8.10;99.90
58638;DHT22;54976;51.510;7.522;2023-05-27T03:51:29;8.10;99.90
58638;DHT22;54976;51.510;7.522;2023-05-27T03:54:29;8.10;99.90
58638;DHT22;54976;51.510;7.522;2023-05-27T03:57:30;8.10;99.90
58638;DHT22;54976;51.510;7.522;2023-05-27T04:00:31;8.10;99.90
58638;DHT22;54976;51.510;7.522;2023-05-27T04:03:31;8.10;99.90
58638;DHT22;54976;51.510;7.522;2023-05-27T04:06:32;8.20;99.90
58638;DHT22;54976;51.510;7.522;2023-05-27T04:09:33;8.20;99.90
58638;DHT22;54976;51.510;7.522;2023-05-27T04:12:34;8.20;99.90
58638;DHT22;54976;51.510;7.522;2023-05-27T04:15:34;8.20;99.90
58638;DHT22;54976;51.510;7.522;2023-05-27T04:18:35;8.30;99.90
58638;DHT22;54976;51.510;7.522;2023-05-27T04:21:36;8.30;99.90
58638;DHT22;54976;51.510;7.522;2023-05-27T04:24:36;8.30;99.90
58638;DHT22;54976;51.510;7.522;2023-05-27T04:27:39;8.30;99.90
58638;DHT22;54976;51.510;7.522;2023-05-27T04:30:40;8.40;99.90
58638;DHT22;54976;51.510;7.522;2023-05-27T04:33:41;8.40;99.90
58638;DHT22;54976;51.510;7.522;2023-05-27T04:36:42;8.50;99.90
58638;DHT22;54976;51.510;7.522;2023-05-27T04:39:44;8.50;99.90
58638;DHT22;54976;51.510;7.522;2023-05-27T04:42:45;8.60;99.90
58638;DHT22;54976;51.510;7.522;2023-05-27T04:45:46;8.60;99.90
58638;DHT22;54976;51.510;7.522;2023-05-27T04:48:47;8.70;99.90
58638;DHT22;54976;51.510;7.522;2023-05-27T04:51:48;8.70;99.90
58638;DHT22;54976;51.510;7.522;2023-05-27T04:54:49;8.70;99.90
58638;DHT22;54976;51.510;7.522;2023-05-27T04:57:50;8.70;99.90
58638;DHT22;54976;51.510;7.522;2023-05-27T05:00:51;8.70;99.90
58638;DHT22;54976;51.510;7.522;2023-05-27T05:03:53;8.70;99.90
58638;DHT22;54976;51.510;7.522;2023-05-27T05:07:11;8.70;99.90
58638;DHT22;54976;51.510;7.522;2023-05-27T05:10:12;8.70;99.90
58638;DHT22;54976;51.510;7.522;2023-05-27T05:13:12;8.70;99.90
58638;DHT22;54976;51.510;7.522;2023-05-27T05:16:14;8.70;99.90
58638;DHT22;54976;51.510;7.522;2023-05-27T05:19:14;8.80;99.90
58638;DHT22;54976;51.510;7.522;2023-05-27T05:22:15;9.00;99.90
58638;DHT22;54976;51.510;7.522;2023-05-27T05:25:18;9.00;99.90
58638;DHT22;54976;51.510;7.522;2023-05-27T05:28:19;9.00;99.90
58638;DHT22;54976;51.510;7.522;2023-05-27T05:31:20;9.30;99.90
58638;DHT22;54976;51.510;7.522;2023-05-27T05:34:20;9.60;99.90
58638;DHT22;54976;51.510;7.522;2023-05-27T05:37:21;9.80;99.90
58638;DHT22;54976;51.510;7.522;2023-05-27T05:40:22;10.30;99.90
58638;DHT22;54976;51.510;7.522;2023-05-27T05:43:23;10.60;99.00
58638;DHT22;54976;51.510;7.522;2023-05-27T05:46:24;10.90;97.90
58638;DHT22;54976;51.510;7.522;2023-05-27T05:49:25;11.00;97.10
58638;DHT22;54976;51.510;7.522;2023-05-27T05:52:25;11.30;97.50
58638;DHT22;54976;51.510;7.522;2023-05-27T05:55:26;11.70;96.90
58638;DHT22;54976;51.510;7.522;2023-05-27T05:58:26;11.70;95.50
58638;DHT22;54976;51.510;7.522;2023-05-27T06:01:27;11.90;95.90
58638;DHT22;54976;51.510;7.522;2023-05-27T06:04:27;12.00;95.20
58638;DHT22;54976;51.510;7.522;2023-05-27T06:07:28;12.00;95.50
58638;DHT22;54976;51.510;7.522;2023-05-27T06:10:28;12.30;95.30
58638;DHT22;54976;51.510;7.522;2023-05-27T06:13:29;12.40;94.80
58638;DHT22;54976;51.510;7.522;2023-05-27T06:16:30;12.40;94.70
58638;DHT22;54976;51.510;7.522;2023-05-27T06:19:30;12.20;93.80
58638;DHT22;54976;51.510;7.522;2023-05-27T06:22:31;12.00;94.80
58638;DHT22;54976;51.510;7.522;2023-05-27T06:25:32;12.10;95.30
58638;DHT22;54976;51.510;7.522;2023-05-27T06:28:32;12.30;95.70
58638;DHT22;54976;51.510;7.522;2023-05-27T06:31:33;12.50;94.70
58638;DHT22;54976;51.510;7.522;2023-05-27T06:34:34;12.60;93.70
58638;DHT22;54976;51.510;7.522;2023-05-27T06:37:36;12.70;93.90
58638;DHT22;54976;51.510;7.522;2023-05-27T06:40:36;12.70;93.70
58638;DHT22;54976;51.510;7.522;2023-05-27T06:43:37;12.90;93.30
58638;DHT22;54976;51.510;7.522;2023-05-27T06:46:37;12.90;93.40
58638;DHT22;54976;51.510;7.522;2023-05-27T06:49:38;12.90;93.20
58638;DHT22;54976;51.510;7.522;2023-05-27T06:52:39;13.00;92.90
58638;DHT22;54976;51.510;7.522;2023-05-27T06:55:39;13.10;92.30
58638;DHT22;54976;51.510;7.522;2023-05-27T06:58:40;13.30;92.90
58638;DHT22;54976;51.510;7.522;2023-05-27T07:01:41;13.40;91.50
58638;DHT22;54976;51.510;7.522;2023-05-27T07:04:42;13.70;92.60
58638;DHT22;54976;51.510;7.522;2023-05-27T07:07:42;14.20;90.30
58638;DHT22;54976;51.510;7.522;2023-05-27T07:10:43;14.80;90.70
58638;DHT22;54976;51.510;7.522;2023-05-27T07:13:43;15.40;88.80
58638;DHT22;54976;51.510;7.522;2023-05-27T07:16:44;15.50;83.30
58638;DHT22;54976;51.510;7.522;2023-05-27T07:19:45;15.80;81.90
58638;DHT22;54976;51.510;7.522;2023-05-27T07:22:45;16.50;79.70
58638;DHT22;54976;51.510;7.522;2023-05-27T07:25:46;17.10;74.50
58638;DHT22;54976;51.510;7.522;2023-05-27T07:28:47;17.70;69.80
58638;DHT22;54976;51.510;7.522;2023-05-27T07:31:47;18.10;67.50
58638;DHT22;54976;51.510;7.522;2023-05-27T07:34:48;18.50;67.60
58638;DHT22;54976;51.510;7.522;2023-05-27T07:37:48;19.10;61.90
58638;DHT22;54976;51.510;7.522;2023-05-27T07:40:49;19.60;62.00
58638;DHT22;54976;51.510;7.522;2023-05-27T07:43:50;20.10;58.10
58638;DHT22;54976;51.510;7.522;2023-05-27T07:46:50;20.40;55.50
58638;DHT22;54976;51.510;7.522;2023-05-27T07:49:51;20.30;56.00
58638;DHT22;54976;51.510;7.522;2023-05-27T07:52:51;20.60;55.00
58638;DHT22;54976;51.510;7.522;2023-05-27T07:55:52;20.70;54.60
58638;DHT22;54976;51.510;7.522;2023-05-27T07:58:52;20.80;53.20
58638;DHT22;54976;51.510;7.522;2023-05-27T08:01:53;20.40;53.60
58638;DHT22;54976;51.510;7.522;2023-05-27T08:04:54;20.80;55.50
58638;DHT22;54976;51.510;7.522;2023-05-27T08:07:54;21.10;53.20
58638;DHT22;54976;51.510;7.522;2023-05-27T08:10:55;21.10;52.50
58638;DHT22;54976;51.510;7.522;2023-05-27T08:13:56;21.00;52.00
58638;DHT22;54976;51.510;7.522;2023-05-27T08:16:56;21.20;52.00
58638;DHT22;54976;51.510;7.522;2023-05-27T08:19:57;21.40;53.10
58638;DHT22;54976;51.510;7.522;2023-05-27T08:22:58;21.30;50.20
58638;DHT22;54976;51.510;7.522;2023-05-27T08:25:59;21.00;50.80
58638;DHT22;54976;51.510;7.522;2023-05-27T08:28:59;20.90;51.20
58638;DHT22;54976;51.510;7.522;2023-05-27T08:32:00;20.80;52.20
58638;DHT22;54976;51.510;7.522;2023-05-27T08:35:00;20.40;52.10
58638;DHT22;54976;51.510;7.522;2023-05-27T08:38:01;19.90;52.50
58638;DHT22;54976;51.510;7.522;2023-05-27T08:41:02;19.80;53.90
58638;DHT22;54976;51.510;7.522;2023-05-27T08:44:03;19.80;54.70
58638;DHT22;54976;51.510;7.522;2023-05-27T08:47:04;20.10;53.80
58638;DHT22;54976;51.510;7.522;2023-05-27T08:50:06;20.00;54.20
58638;DHT22;54976;51.510;7.522;2023-05-27T08:53:08;20.10;54.90
58638;DHT22;54976;51.510;7.522;2023-05-27T08:56:10;19.80;55.40
58638;DHT22;54976;51.510;7.522;2023-05-27T08:59:13;20.10;53.80
58638;DHT22;54976;51.510;7.522;2023-05-27T09:02:14;20.40;53.40
58638;DHT22;54976;51.510;7.522;2023-05-27T09:05:15;20.40;54.20
58638;DHT22;54976;51.510;7.522;2023-05-27T09:08:16;20.60;52.60
58638;DHT22;54976;51.510;7.522;2023-05-27T09:11:22;20.20;54.10
58638;DHT22;54976;51.510;7.522;2023-05-27T09:14:23;19.80;55.30
58638;DHT22;54976;51.510;7.522;2023-05-27T09:17:24;19.70;54.50
58638;DHT22;54976;51.510;7.522;2023-05-27T09:20:26;19.50;55.80
58638;DHT22;54976;51.510;7.522;2023-05-27T09:23:27;19.70;55.30
58638;DHT22;54976;51.510;7.522;2023-05-27T09:26:27;19.60;55.10
58638;DHT22;54976;51.510;7.522;2023-05-27T09:29:28;19.00;56.30
58638;DHT22;54976;51.510;7.522;2023-05-27T09:32:31;19.00;56.60
58638;DHT22;54976;51.510;7.522;2023-05-27T09:35:37;19.40;55.20
58638;DHT22;54976;51.510;7.522;2023-05-27T09:38:39;19.90;54.00
58638;DHT22;54976;51.510;7.522;2023-05-27T09:41:42;20.30;53.80
58638;DHT22;54976;51.510;7.522;2023-05-27T09:44:45;21.00;53.90
58638;DHT22;54976;51.510;7.522;2023-05-27T09:47:50;21.40;50.40
58638;DHT22;54976;51.510;7.522;2023-05-27T09:50:52;21.70;49.90
58638;DHT22;54976;51.510;7.522;2023-05-27T09:53:54;22.10;49.20
58638;DHT22;54976;51.510;7.522;2023-05-27T09:56:59;22.00;50.00
58638;DHT22;54976;51.510;7.522;2023-05-27T09:59:59;22.20;49.90
58638;DHT22;54976;51.510;7.522;2023-05-27T10:03:02;22.20;48.30
58638;DHT22;54976;51.510;7.522;2023-05-27T10:06:05;22.20;49.40
58638;DHT22;54976;51.510;7.522;2023-05-27T10:09:06;22.10;48.70
58638;DHT22;54976;51.510;7.522;2023-05-27T10:12:07;22.30;48.40
58638;DHT22;54976;51.510;7.522;2023-05-27T10:15:09;21.70;49.00
58638;DHT22;54976;51.510;7.522;2023-05-27T10:18:09;21.40;50.40
58638;DHT22;54976;51.510;7.522;2023-05-27T10:21:18;21.70;50.40
58638;DHT22;54976;51.510;7.522;2023-05-27T10:24:31;21.70;48.90
58638;DHT22;54976;51.510;7.522;2023-05-27T10:27:44;21.60;48.90
58638;DHT22;54976;51.510;7.522;2023-05-27T10:30:46;21.10;48.60
58638;DHT22;54976;51.510;7.522;2023-05-27T10:33:48;20.70;50.30
58638;DHT22;54976;51.510;7.522;2023-05-27T10:36:58;20.50;50.30
58638;DHT22;54976;51.510;7.522;2023-05-27T10:40:01;20.40;51.50
58638;DHT22;54976;51.510;7.522;2023-05-27T10:43:03;20.40;51.20
58638;DHT22;54976;51.510;7.522;2023-05-27T10:46:12;20.20;51.50
58638;DHT22;54976;51.510;7.522;2023-05-27T10:49:14;20.00;52.30
58638;DHT22;54976;51.510;7.522;2023-05-27T10:52:17;20.00;53.50
58638;DHT22;54976;51.510;7.522;2023-05-27T10:55:20;20.00;52.40
58638;DHT22;54976;51.510;7.522;2023-05-27T10:58:21;19.90;52.30
58638;DHT22;54976;51.510;7.522;2023-05-27T11:01:23;19.70;52.10
58638;DHT22;54976;51.510;7.522;2023-05-27T11:04:34;19.50;52.00
58638;DHT22;54976;51.510;7.522;2023-05-27T11:07:38;19.40;52.50
58638;DHT22;54976;51.510;7.522;2023-05-27T11:10:41;19.40;53.20
58638;DHT22;54976;51.510;7.522;2023-05-27T11:13:45;19.30;52.80
58638;DHT22;54976;51.510;7.522;2023-05-27T11:16:47;19.40;54.40
58638;DHT22;54976;51.510;7.522;2023-05-27T11:19:49;19.40;52.70
58638;DHT22;54976;51.510;7.522;2023-05-27T11:22:51;19.20;53.50
58638;DHT22;54976;51.510;7.522;2023-05-27T11:25:51;19.30;54.30
58638;DHT22;54976;51.510;7.522;2023-05-27T11:28:53;19.40;53.50
58638;DHT22;54976;51.510;7.522;2023-05-27T11:31:56;19.40;52.70
58638;DHT22;54976;51.510;7.522;2023-05-27T11:34:56;19.50;53.60
58638;DHT22;54976;51.510;7.522;2023-05-27T11:37:57;19.70;54.50
58638;DHT22;54976;51.510;7.522;2023-05-27T11:41:07;19.50;53.80
58638;DHT22;54976;51.510;7.522;2023-05-27T11:44:08;19.50;53.30
58638;DHT22;54976;51.510;7.522;2023-05-27T11:47:09;19.60;53.90
58638;DHT22;54976;51.510;7.522;2023-05-27T11:50:09;19.70;55.50
58638;DHT22;54976;51.510;7.522;2023-05-27T11:53:11;20.00;54.80
58638;DHT22;54976;51.510;7.522;2023-05-27T11:56:12;20.20;51.50
58638;DHT22;54976;51.510;7.522;2023-05-27T11:59:12;20.10;51.30
58638;DHT22;54976;51.510;7.522;2023-05-27T12:02:14;20.50;51.70
58638;DHT22;54976;51.510;7.522;2023-05-27T12:05:15;20.80;51.80
58638;DHT22;54976;51.510;7.522;2023-05-27T12:08:16;21.10;52.30
58638;DHT22;54976;51.510;7.522;2023-05-27T12:11:17;21.60;51.30
58638;DHT22;54976;51.510;7.522;2023-05-27T12:14:17;21.70;48.90
58638;DHT22;54976;51.510;7.522;2023-05-27T12:17:18;22.10;48.00
58638;DHT22;54976;51.510;7.522;2023-05-27T12:20:19;22.80;46.40
58638;DHT22;54976;51.510;7.522;2023-05-27T12:23:20;23.60;44.10
58638;DHT22;54976;51.510;7.522;2023-05-27T12:26:21;24.00;44.20
58638;DHT22;54976;51.510;7.522;2023-05-27T12:29:22;24.40;43.20
58638;DHT22;54976;51.510;7.522;2023-05-27T12:32:24;25.00;41.70
58638;DHT22;54976;51.510;7.522;2023-05-27T12:35:25;25.00;41.70
58638;DHT22;54976;51.510;7.522;2023-05-27T12:38:26;25.50;43.30
58638;DHT22;54976;51.510;7.522;2023-05-27T12:41:27;26.50;40.70
58638;DHT22;54976;51.510;7.522;2023-05-27T12:44:27;26.90;38.60
58638;DHT22;54976;51.510;7.522;2023-05-27T12:47:28;26.50;37.40
58638;DHT22;54976;51.510;7.522;2023-05-27T12:50:29;26.40;38.30
58638;DHT22;54976;51.510;7.522;2023-05-27T12:53:30;26.70;37.60
58638;DHT22;54976;51.510;7.522;2023-05-27T12:56:31;26.40;39.30
58638;DHT22;54976;51.510;7.522;2023-05-27T12:59:32;26.50;38.20
58638;DHT22;54976;51.510;7.522;2023-05-27T13:02:33;26.40;38.40
58638;DHT22;54976;51.510;7.522;2023-05-27T13:05:34;26.70;37.40
58638;DHT22;54976;51.510;7.522;2023-05-27T13:08:34;27.20;38.20
58638;DHT22;54976;51.510;7.522;2023-05-27T13:11:35;27.70;37.30
58638;DHT22;54976;51.510;7.522;2023-05-27T13:14:36;27.20;36.20
58638;DHT22;54976;51.510;7.522;2023-05-27T13:17:36;26.50;36.50
58638;DHT22;54976;51.510;7.522;2023-05-27T13:20:37;26.70;38.00
58638;DHT22;54976;51.510;7.522;2023-05-27T13:23:38;27.00;37.70
58638;DHT22;54976;51.510;7.522;2023-05-27T13:26:38;27.50;37.70
58638;DHT22;54976;51.510;7.522;2023-05-27T13:29:40;27.70;36.10
58638;DHT22;54976;51.510;7.522;2023-05-27T13:32:42;27.20;36.20
58638;DHT22;54976;51.510;7.522;2023-05-27T13:35:43;26.90;36.90
58638;DHT22;54976;51.510;7.522;2023-05-27T13:38:44;26.60;36.90
58638;DHT22;54976;51.510;7.522;2023-05-27T13:41:44;26.50;36.60
58638;DHT22;54976;51.510;7.522;2023-05-27T13:44:45;26.40;36.90
58638;DHT22;54976;51.510;7.522;2023-05-27T13:47:46;26.30;37.20
58638;DHT22;54976;51.510;7.522;2023-05-27T13:50:46;26.60;38.10
58638;DHT22;54976;51.510;7.522;2023-05-27T13:53:47;27.00;37.20
58638;DHT22;54976;51.510;7.522;2023-05-27T13:56:49;26.90;36.10
58638;DHT22;54976;51.510;7.522;2023-05-27T13:59:50;26.20;36.40
58638;DHT22;54976;51.510;7.522;2023-05-27T14:02:51;25.70;37.20
58638;DHT22;54976;51.510;7.522;2023-05-27T14:05:54;25.80;37.60
58638;DHT22;54976;51.510;7.522;2023-05-27T14:08:55;26.20;37.30
58638;DHT22;54976;51.510;7.522;2023-05-27T14:11:56;25.90;36.80
58638;DHT22;54976;51.510;7.522;2023-05-27T14:14:57;25.80;37.90
58638;DHT22;54976;51.510;7.522;2023-05-27T14:17:58;25.90;38.10
58638;DHT22;54976;51.510;7.522;2023-05-27T14:21:02;25.90;37.50
58638;DHT22;54976;51.510;7.522;2023-05-27T14:24:03;25.80;36.50
58638;DHT22;54976;51.510;7.522;2023-05-27T14:27:04;25.20;37.30
58638;DHT22;54976;51.510;7.522;2023-05-27T14:30:05;25.30;37.90
58638;DHT22;54976;51.510;7.522;2023-05-27T14:33:06;24.80;38.30
58638;DHT22;54976;51.510;7.522;2023-05-27T14:36:07;25.00;37.30
58638;DHT22;54976;51.510;7.522;2023-05-27T14:39:08;24.80;37.30
58638;DHT22;54976;51.510;7.522;2023-05-27T14:42:08;24.50;38.40
58638;DHT22;54976;51.510;7.522;2023-05-27T14:45:09;24.60;40.20
58638;DHT22;54976;51.510;7.522;2023-05-27T14:48:10;25.10;38.10
58638;DHT22;54976;51.510;7.522;2023-05-27T14:51:11;25.30;38.80
58638;DHT22;54976;51.510;7.522;2023-05-27T14:54:12;25.00;37.20
58638;DHT22;54976;51.510;7.522;2023-05-27T14:57:13;25.10;37.80
58638;DHT22;54976;51.510;7.522;2023-05-27T15:00:13;25.10;37.00
58638;DHT22;54976;51.510;7.522;2023-05-27T15:03:14;24.90;36.90
58638;DHT22;54976;51.510;7.522;2023-05-27T15:06:15;24.40;36.10
58638;DHT22;54976;51.510;7.522;2023-05-27T15:09:15;24.20;36.60
58638;DHT22;54976;51.510;7.522;2023-05-27T15:12:17;24.10;37.40
58638;DHT22;54976;51.510;7.522;2023-05-27T15:15:19;24.00;38.40
58638;DHT22;54976;51.510;7.522;2023-05-27T15:18:21;24.00;38.40
58638;DHT22;54976;51.510;7.522;2023-05-27T15:21:21;23.70;38.00
58638;DHT22;54976;51.510;7.522;2023-05-27T15:24:22;23.60;39.20
58638;DHT22;54976;51.510;7.522;2023-05-27T15:27:22;23.60;39.20
58638;DHT22;54976;51.510;7.522;2023-05-27T15:30:24;23.50;40.00
58638;DHT22;54976;51.510;7.522;2023-05-27T15:33:25;23.70;39.90
58638;DHT22;54976;51.510;7.522;2023-05-27T15:36:25;23.50;38.60
58638;DHT22;54976;51.510;7.522;2023-05-27T15:39:26;23.30;39.40
58638;DHT22;54976;51.510;7.522;2023-05-27T15:42:26;23.10;40.00
58638;DHT22;54976;51.510;7.522;2023-05-27T15:45:27;23.00;40.80
58638;DHT22;54976;51.510;7.522;2023-05-27T15:48:28;23.10;39.70
58638;DHT22;54976;51.510;7.522;2023-05-27T15:51:29;23.20;41.30
58638;DHT22;54976;51.510;7.522;2023-05-27T15:54:29;23.20;39.60
58638;DHT22;54976;51.510;7.522;2023-05-27T15:57:30;23.10;40.30
58638;DHT22;54976;51.510;7.522;2023-05-27T16:00:30;23.00;40.90
58638;DHT22;54976;51.510;7.522;2023-05-27T16:03:31;22.90;40.40
58638;DHT22;54976;51.510;7.522;2023-05-27T16:06:35;22.90;40.70
58638;DHT22;54976;51.510;7.522;2023-05-27T16:09:35;23.10;39.70
58638;DHT22;54976;51.510;7.522;2023-05-27T16:12:38;23.00;39.00
58638;DHT22;54976;51.510;7.522;2023-05-27T16:15:39;22.80;39.10
58638;DHT22;54976;51.510;7.522;2023-05-27T16:18:39;22.80;40.10
58638;DHT22;54976;51.510;7.522;2023-05-27T16:21:40;22.80;39.60
58638;DHT22;54976;51.510;7.522;2023-05-27T16:24:43;22.90;38.70
58638;DHT22;54976;51.510;7.522;2023-05-27T16:27:44;22.90;39.00
58638;DHT22;54976;51.510;7.522;2023-05-27T16:30:45;22.60;38.70
58638;DHT22;54976;51.510;7.522;2023-05-27T16:33:46;22.70;41.00
58638;DHT22;54976;51.510;7.522;2023-05-27T16:36:46;22.80;39.90
58638;DHT22;54976;51.510;7.522;2023-05-27T16:39:47;22.70;38.90
58638;DHT22;54976;51.510;7.522;2023-05-27T16:42:47;22.50;39.10
58638;DHT22;54976;51.510;7.522;2023-05-27T16:45:48;22.50;39.80
58638;DHT22;54976;51.510;7.522;2023-05-27T16:48:49;22.50;39.50
58638;DHT22;54976;51.510;7.522;2023-05-27T16:51:49;22.30;40.00
58638;DHT22;54976;51.510;7.522;2023-05-27T16:54:50;22.40;40.00
58638;DHT22;54976;51.510;7.522;2023-05-27T16:57:50;22.30;40.30
58638;DHT22;54976;51.510;7.522;2023-05-27T17:00:55;22.20;39.50
58638;DHT22;54976;51.510;7.522;2023-05-27T17:03:57;22.20;40.00
58638;DHT22;54976;51.510;7.522;2023-05-27T17:06:58;22.10;39.50
58638;DHT22;54976;51.510;7.522;2023-05-27T17:09:59;22.10;40.10
58638;DHT22;54976;51.510;7.522;2023-05-27T17:12:59;22.10;40.50
58638;DHT22;54976;51.510;7.522;2023-05-27T17:16:00;22.10;40.00
58638;DHT22;54976;51.510;7.522;2023-05-27T17:19:01;22.00;39.80
58638;DHT22;54976;51.510;7.522;2023-05-27T17:22:01;22.00;39.10
58638;DHT22;54976;51.510;7.522;2023-05-27T17:25:03;21.90;39.30
58638;DHT22;54976;51.510;7.522;2023-05-27T17:28:03;21.90;39.10
58638;DHT22;54976;51.510;7.522;2023-05-27T17:31:04;21.90;39.90
58638;DHT22;54976;51.510;7.522;2023-05-27T17:34:05;21.80;38.10
58638;DHT22;54976;51.510;7.522;2023-05-27T17:37:05;21.70;38.30
58638;DHT22;54976;51.510;7.522;2023-05-27T17:40:07;21.60;39.60
58638;DHT22;54976;51.510;7.522;2023-05-27T17:43:09;21.50;38.60
58638;DHT22;54976;51.510;7.522;2023-05-27T17:46:09;21.40;39.40
58638;DHT22;54976;51.510;7.522;2023-05-27T17:49:12;21.40;40.10
58638;DHT22;54976;51.510;7.522;2023-05-27T17:52:13;21.30;41.00
58638;DHT22;54976;51.510;7.522;2023-05-27T17:55:16;21.30;40.50
58638;DHT22;54976;51.510;7.522;2023-05-27T17:58:16;21.10;40.10
58638;DHT22;54976;51.510;7.522;2023-05-27T18:01:17;21.10;40.10
58638;DHT22;54976;51.510;7.522;2023-05-27T18:04:18;21.00;40.10
58638;DHT22;54976;51.510;7.522;2023-05-27T18:07:18;21.00;40.30
58638;DHT22;54976;51.510;7.522;2023-05-27T18:10:19;20.90;40.40
58638;DHT22;54976;51.510;7.522;2023-05-27T18:13:21;20.90;40.20
58638;DHT22;54976;51.510;7.522;2023-05-27T18:16:22;20.80;41.00
58638;DHT22;54976;51.510;7.522;2023-05-27T18:19:24;20.80;40.80
58638;DHT22;54976;51.510;7.522;2023-05-27T18:22:24;20.70;41.00
58638;DHT22;54976;51.510;7.522;2023-05-27T18:25:25;20.60;41.20
58638;DHT22;54976;51.510;7.522;2023-05-27T18:28:25;20.60;41.60
58638;DHT22;54976;51.510;7.522;2023-05-27T18:31:26;20.50;41.90
58638;DHT22;54976;51.510;7.522;2023-05-27T18:34:27;20.40;42.30
58638;DHT22;54976;51.510;7.522;2023-05-27T18:37:27;20.40;42.70
58638;DHT22;54976;51.510;7.522;2023-05-27T18:40:28;20.30;42.70
58638;DHT22;54976;51.510;7.522;2023-05-27T18:43:29;20.20;43.20
58638;DHT22;54976;51.510;7.522;2023-05-27T18:46:30;20.20;44.10
58638;DHT22;54976;51.510;7.522;2023-05-27T18:49:31;20.10;44.10
58638;DHT22;54976;51.510;7.522;2023-05-27T18:52:31;20.00;45.10
58638;DHT22;54976;51.510;7.522;2023-05-27T18:55:32;19.80;45.10
58638;DHT22;54976;51.510;7.522;2023-05-27T18:58:32;19.70;46.20
58638;DHT22;54976;51.510;7.522;2023-05-27T19:01:35;19.50;45.60
58638;DHT22;54976;51.510;7.522;2023-05-27T19:04:37;19.50;46.20
58638;DHT22;54976;51.510;7.522;2023-05-27T19:07:37;19.50;47.50
58638;DHT22;54976;51.510;7.522;2023-05-27T19:10:38;19.30;47.30
58638;DHT22;54976;51.510;7.522;2023-05-27T19:13:40;19.20;48.10
58638;DHT22;54976;51.510;7.522;2023-05-27T19:16:41;19.10;48.50